Bullocktown, Indiana
Current Conditions -  °F | °C
As of 1:54 AM on Wednesday 26 Nov 2014 (Local Time) from KEVV Reporting Station
Clear Clear  
Wind Chill: 27°   Ceiling: Unl
Heat Index: 27°   Visibility: 8mi
Dew Point: 23°   Wind: 3mph
Humidity: 85%   Direction: 10°N
Pressure: 30.18"   Gusts: NA
Location:  38.0544°N, 87.2562°W
Report Text: KEVV 260754Z AUTO 01003KT 8SM CLR M03/M05 A3018 RMK AO2 SLP224 T10281050
Loading
Personal Weather Stations






























Interactive Weather Map New forecast layout! Learn more

10-Day Weather Forecast

Advertisements
Track Severe Weather on mobile